Time;durP1;ratioP1;P1;durP2;ratioP2;P2;SDS_P1;SDS_P2;PMS_P1;PMS_P2;Temp;Humidity;BMP_temperature;BMP_pressure;BME280_temperature;BME280_humidity;BME280_pressure;Samples;Min_cycle;Max_cycle;Signal;HPM_P1;HPM_P2
2023/10/11 00:00:33;;;;;;;5.70;3.37;;;;;;;14.11;63.13;99137.22;5151955;27;41083;-80
2023/10/11 00:03:06;;;;;;;8.23;3.90;;;;;;;14.13;63.23;99135.31;5135332;27;42668;-83
2023/10/11 00:05:40;;;;;;;6.10;3.03;;;;;;;14.13;63.06;99130.00;5153575;27;43168;-80
2023/10/11 00:08:09;;;;;;;7.20;3.27;;;;;;;14.14;63.08;99126.38;5152637;27;39269;-81
2023/10/11 00:10:47;;;;;;;7.77;3.77;;;;;;;14.12;63.47;99118.47;5153286;27;41762;-79
2023/10/11 00:13:16;;;;;;;6.53;3.43;;;;;;;14.15;63.13;99126.25;5135509;27;41819;-79
2023/10/11 00:15:48;;;;;;;5.63;3.57;;;;;;;14.15;63.42;99122.75;5154160;27;43410;-82
2023/10/11 00:18:19;;;;;;;5.20;3.20;;;;;;;14.01;63.36;99105.09;5150434;27;40090;-81
2023/10/11 00:20:50;;;;;;;5.03;3.27;;;;;;;14.16;63.47;99127.97;5153664;27;41050;-79
2023/10/11 00:23:21;;;;;;;4.43;3.03;;;;;;;14.15;63.64;99126.25;5152602;27;42594;-82
2023/10/11 00:25:50;;;;;;;4.23;3.00;;;;;;;14.13;63.53;99119.34;5151071;27;43153;-82
2023/10/11 00:28:22;;;;;;;6.10;3.50;;;;;;;14.12;64.17;99125.63;5152930;27;39995;-80
2023/10/11 00:30:55;;;;;;;5.63;3.30;;;;;;;13.98;63.79;99108.81;5150293;27;41643;-82
2023/10/11 00:33:25;;;;;;;5.43;3.50;;;;;;;14.06;64.21;99118.09;5149804;27;43167;-80
2023/10/11 00:35:55;;;;;;;5.97;3.43;;;;;;;13.84;63.76;99082.38;5152962;27;43215;-81
2023/10/11 00:38:27;;;;;;;6.93;3.27;;;;;;;14.01;63.83;99121.94;5152836;27;40869;-79
2023/10/11 00:41:07;;;;;;;6.43;3.00;;;;;;;13.98;64.48;99116.81;5148265;27;41712;-80
2023/10/11 00:43:36;;;;;;;5.90;3.37;;;;;;;13.96;64.24;99108.13;5148861;27;42887;-83
2023/10/11 00:46:05;;;;;;;5.60;3.30;;;;;;;13.95;64.44;99105.56;5134645;27;41465;-79
2023/10/11 00:48:35;;;;;;;4.17;2.73;;;;;;;13.93;64.37;99105.66;5134268;27;39007;-82
2023/10/11 00:51:03;;;;;;;7.63;3.97;;;;;;;13.94;64.25;99098.53;5151915;27;41687;-79
2023/10/11 00:53:34;;;;;;;5.90;3.70;;;;;;;13.96;64.49;99097.47;5152503;27;42887;-80
2023/10/11 00:56:05;;;;;;;6.63;4.03;;;;;;;13.96;64.86;99097.47;5134421;27;43538;-80
2023/10/11 00:58:33;;;;;;;5.47;3.27;;;;;;;13.97;64.70;99103.66;5152215;27;40217;-82
2023/10/11 01:01:03;;;;;;;5.17;2.97;;;;;;;13.93;64.66;99103.00;5137931;27;41136;-82
2023/10/11 01:03:32;;;;;;;6.23;3.23;;;;;;;13.90;64.63;99097.03;5155151;27;42902;-81
2023/10/11 01:06:03;;;;;;;4.67;3.40;;;;;;;13.85;64.88;99088.53;5155112;27;42763;-81
2023/10/11 01:08:38;;;;;;;7.30;4.00;;;;;;;13.78;65.40;99098.78;5155121;27;38991;-80
2023/10/11 01:11:08;;;;;;;7.43;3.57;;;;;;;13.73;65.21;99095.59;5151792;27;41793;-81
2023/10/11 01:13:40;;;;;;;9.33;3.77;;;;;;;13.70;65.50;99098.47;5155340;27;42644;-83
2023/10/11 01:16:10;;;;;;;7.17;3.70;;;;;;;13.53;65.50;99069.56;5138924;27;41374;-79
2023/10/11 01:18:40;;;;;;;6.20;3.53;;;;;;;13.61;65.92;99091.13;5156091;27;39784;-83
2023/10/11 01:21:12;;;;;;;5.73;3.13;;;;;;;13.54;66.11;99084.56;5139600;27;40311;-80
2023/10/11 01:23:40;;;;;;;6.60;3.37;;;;;;;13.41;66.12;99073.94;5142186;27;41689;-79
2023/10/11 01:26:09;;;;;;;7.37;4.03;;;;;;;13.52;66.16;99091.78;5140169;27;41195;-82
2023/10/11 01:28:37;;;;;;;5.73;3.10;;;;;;;13.50;66.04;99091.03;5155788;27;40215;-80
2023/10/11 01:31:09;;;;;;;6.67;3.60;;;;;;;13.48;66.37;99084.97;5138786;27;40837;-83
2023/10/11 01:33:40;;;;;;;6.17;3.20;;;;;;;13.51;66.45;99084.78;5153064;27;42884;-82
2023/10/11 01:36:11;;;;;;;4.77;2.97;;;;;;;13.53;66.76;99077.53;5138593;27;40812;-82
2023/10/11 01:38:46;;;;;;;7.30;3.67;;;;;;;13.54;66.23;99084.56;5155605;27;39547;-80
2023/10/11 01:41:16;;;;;;;8.47;4.20;;;;;;;13.56;66.45;99083.50;5154009;27;41656;-80
2023/10/11 01:43:46;;;;;;;8.47;4.30;;;;;;;13.57;66.65;99085.19;5155295;27;43507;-80
2023/10/11 01:46:16;;;;;;;9.27;3.43;;;;;;;13.47;66.98;99064.69;5155554;27;45214;-79
2023/10/11 01:48:45;;;;;;;6.83;3.93;;;;;;;13.57;66.90;99081.69;5154105;27;39656;-80
2023/10/11 01:51:21;;;;;;;6.10;3.53;;;;;;;13.55;66.77;99075.63;5136687;27;41846;-80
2023/10/11 01:53:48;;;;;;;6.30;3.40;;;;;;;13.52;66.76;99076.69;5136988;27;41708;-82
2023/10/11 01:56:17;;;;;;;6.90;3.80;;;;;;;13.50;66.76;99072.41;5154692;27;41931;-79
2023/10/11 01:58:45;;;;;;;5.40;3.10;;;;;;;13.47;66.92;99068.19;5137082;27;39011;-82
2023/10/11 02:01:21;;;;;;;8.27;3.80;;;;;;;13.46;67.40;99071.81;5154594;27;42730;-79
2023/10/11 02:03:53;;;;;;;7.03;4.23;;;;;;;13.46;67.00;99065.63;5153866;27;42486;-82
2023/10/11 02:06:24;;;;;;;7.87;3.67;;;;;;;13.46;67.38;99057.66;5151266;27;43269;-81
2023/10/11 02:08:52;;;;;;;9.90;3.43;;;;;;;13.37;67.66;99042.31;5136204;27;41285;-79
2023/10/11 02:11:23;;;;;;;6.87;3.70;;;;;;;13.49;67.90;99052.09;5136670;27;42103;-82
2023/10/11 02:13:51;;;;;;;7.10;3.40;;;;;;;13.47;67.91;99046.91;5154689;27;41863;-80
2023/10/11 02:16:18;;;;;;;6.50;3.27;;;;;;;13.56;67.67;99053.38;5137794;27;41515;-81
2023/10/11 02:18:51;;;;;;;6.27;3.00;;;;;;;13.52;67.62;99042.09;5137518;27;39767;-79
2023/10/11 02:21:19;;;;;;;6.73;3.53;;;;;;;13.61;67.24;99059.19;5137834;27;40802;-82
2023/10/11 02:23:48;;;;;;;5.50;3.30;;;;;;;13.47;67.66;99030.09;5137103;27;42671;-79
2023/10/11 02:26:17;;;;;;;8.00;3.40;;;;;;;13.55;67.91;99057.00;5137691;27;41344;-83
2023/10/11 02:28:45;;;;;;;5.63;3.30;;;;;;;13.53;68.25;99056.25;5154802;27;40942;-81
2023/10/11 02:31:20;;;;;;;5.47;3.30;;;;;;;13.52;68.19;99059.88;5137848;27;40392;-79
2023/10/11 02:33:51;;;;;;;6.80;3.20;;;;;;;13.48;67.96;99058.38;5137435;27;41892;-79
2023/10/11 02:36:19;;;;;;;5.90;3.20;;;;;;;13.33;68.45;99030.22;5137690;27;42191;-80
2023/10/11 02:38:50;;;;;;;6.20;3.67;;;;;;;13.47;68.41;99054.03;5137229;27;39105;-83
2023/10/11 02:41:24;;;;;;;7.43;3.47;;;;;;;13.42;68.15;99048.19;5136810;27;41745;-81
2023/10/11 02:43:52;;;;;;;5.93;3.10;;;;;;;13.43;68.58;99055.22;5135684;27;41587;-82
2023/10/11 02:46:23;;;;;;;6.47;3.87;;;;;;;13.42;68.17;99054.34;5153541;27;42939;-82
2023/10/11 02:49:06;;;;;;;5.77;3.40;;;;;;;13.39;68.10;99059.88;5154772;27;39448;-81
2023/10/11 02:51:34;;;;;;;7.40;3.87;;;;;;;13.34;67.97;99053.19;5153974;27;41562;-83
2023/10/11 02:54:04;;;;;;;6.30;3.77;;;;;;;13.21;68.18;99046.09;5135689;27;41644;-83
2023/10/11 02:56:46;;;;;;;6.13;3.60;;;;;;;13.16;68.50;99042.88;5154927;27;43037;-80
2023/10/11 02:59:19;;;;;;;6.33;3.27;;;;;;;13.21;68.42;99054.06;5151433;27;40749;-79
2023/10/11 03:01:59;;;;;;;5.43;3.60;;;;;;;13.12;68.58;99036.03;5150109;27;41568;-80
2023/10/11 03:04:32;;;;;;;5.83;3.60;;;;;;;13.17;68.19;99055.22;5135447;27;41977;-79
2023/10/11 03:07:01;;;;;;;7.20;3.67;;;;;;;13.16;68.34;99056.19;5135912;27;42620;-80
2023/10/11 03:09:33;;;;;;;5.27;3.13;;;;;;;13.14;68.66;99050.13;5152908;27;39825;-82
2023/10/11 03:12:06;;;;;;;5.00;3.50;;;;;;;12.99;68.72;99029.88;5150216;27;41900;-80
2023/10/11 03:14:41;;;;;;;9.90;4.10;;;;;;;13.10;68.93;99043.31;5151841;27;43104;-81
2023/10/11 03:17:13;;;;;;;7.60;3.80;;;;;;;12.98;69.18;99022.03;5137068;27;42223;-82
2023/10/11 03:19:43;;;;;;;5.17;3.50;;;;;;;13.10;69.18;99040.63;5135912;27;39724;-84
2023/10/11 03:22:12;;;;;;;6.57;3.27;;;;;;;13.12;69.41;99035.19;5136778;27;41762;-83
2023/10/11 03:24:41;;;;;;;6.70;3.40;;;;;;;13.13;69.47;99043.06;5153425;27;42836;-82
2023/10/11 03:27:10;;;;;;;7.37;3.23;;;;;;;13.15;69.43;99030.53;5155093;27;43173;-83
2023/10/11 03:29:40;;;;;;;9.43;4.10;;;;;;;13.17;69.26;99028.63;5154996;27;40797;-83
2023/10/11 03:32:09;;;;;;;8.30;3.90;;;;;;;13.20;69.18;99032.91;5154122;27;42714;-82
2023/10/11 03:34:37;;;;;;;7.77;3.53;;;;;;;13.24;69.29;99026.38;5136100;27;41883;-82
2023/10/11 03:37:10;;;;;;;7.07;3.67;;;;;;;13.26;69.16;99030.63;5154146;27;41198;-80
2023/10/11 03:39:44;;;;;;;5.23;3.30;;;;;;;13.21;69.26;99022.16;5136592;27;38847;-82
2023/10/11 03:42:17;;;;;;;7.67;3.37;;;;;;;13.32;69.17;99036.50;5149224;27;41696;-81
2023/10/11 03:44:47;;;;;;;6.60;3.67;;;;;;;13.33;69.29;99032.88;5152491;27;42924;-82
2023/10/11 03:47:18;;;;;;;6.03;2.93;;;;;;;13.36;69.22;99027.31;5135509;27;41253;-82
2023/10/11 03:49:52;;;;;;;6.07;3.37;;;;;;;13.32;69.32;99025.84;5151482;27;40998;-82
2023/10/11 03:52:22;;;;;;;8.10;3.63;;;;;;;13.37;69.22;99029.03;5152548;27;41714;-81
2023/10/11 03:54:53;;;;;;;4.87;2.80;;;;;;;13.35;69.11;99031.81;5152294;27;43532;-83
2023/10/11 03:57:23;;;;;;;5.93;3.17;;;;;;;13.38;69.50;99026.25;5135587;27;42516;-82
2023/10/11 03:59:51;;;;;;;6.17;3.53;;;;;;;13.26;69.25;99001.38;5135168;27;39074;-83
2023/10/11 04:02:20;;;;;;;4.60;3.20;;;;;;;13.41;69.49;99022.53;5135483;27;41753;-80
2023/10/11 04:04:49;;;;;;;5.43;3.03;;;;;;;13.33;69.30;99008.94;5152301;27;42808;-81
2023/10/11 04:07:21;;;;;;;5.57;3.07;;;;;;;13.42;69.29;99034.88;5152396;27;42015;-82
2023/10/11 04:09:49;;;;;;;4.43;2.57;;;;;;;13.40;69.23;99023.50;5152422;27;39799;-81
2023/10/11 04:12:16;;;;;;;5.93;3.60;;;;;;;13.36;69.53;99030.84;5135256;27;40737;-80
2023/10/11 04:14:45;;;;;;;5.80;3.47;;;;;;;13.24;69.66;99013.94;5154008;27;43600;-83
2023/10/11 04:17:26;;;;;;;7.23;3.60;;;;;;;13.27;69.70;99029.69;5154640;27;42298;-79
2023/10/11 08:48:50;;;;;;;7.00;4.60;;;;;;;35.14;27.23;99186.53;5108104;28;20308;-82
2023/10/11 08:51:22;;;;;;;7.28;4.45;;;;;;;36.05;27.35;99172.66;5106084;28;39299;-83
2023/10/11 08:53:54;;;;;;;6.22;3.58;;;;;;;37.18;25.46;99185.78;5103595;28;42215;-82
2023/10/11 08:56:23;;;;;;;6.38;3.85;;;;;;;38.12;24.75;99192.69;5089920;28;41966;-83
2023/10/11 08:58:53;;;;;;;8.02;4.20;;;;;;;38.30;24.53;99183.94;5107966;28;42085;-85
2023/10/11 09:01:24;;;;;;;6.25;4.15;;;;;;;38.60;24.06;99192.41;5089412;28;39230;-85
2023/10/11 09:04:11;;;;;;;5.32;3.28;;;;;;;38.08;23.79;99190.44;5103505;28;41649;-83
2023/10/11 09:06:43;;;;;;;5.35;3.75;;;;;;;38.02;24.10;99176.81;5103739;28;43670;-83
2023/10/11 09:09:33;;;;;;;5.53;3.53;;;;;;;37.81;23.50;99150.97;5089807;28;41635;-82
2023/10/11 09:12:20;;;;;;;6.35;3.50;;;;;;;37.60;24.16;99149.94;5106011;28;40779;-84
2023/10/11 09:14:58;;;;;;;7.65;4.00;;;;;;;36.30;24.85;99146.31;5090403;28;41044;-85
2023/10/11 09:17:26;;;;;;;6.13;4.13;;;;;;;35.34;25.77;99188.03;5105649;28;43153;-85
2023/10/11 09:19:58;;;;;;;5.80;3.92;;;;;;;34.34;26.68;99181.03;5108594;28;42144;-81
2023/10/11 09:22:27;;;;;;;4.38;3.97;;;;;;;33.50;27.99;99169.38;5107045;28;40281;-83
2023/10/11 09:25:06;;;;;;;7.80;3.87;;;;;;;32.67;28.82;99146.47;5107397;28;42586;-84
2023/10/11 09:27:48;;;;;;;6.13;4.03;;;;;;;32.18;29.36;99159.31;5105611;28;41761;-81
2023/10/11 09:30:19;;;;;;;6.37;4.00;;;;;;;31.82;30.00;99148.28;5089488;28;41072;-80
2023/10/11 09:32:49;;;;;;;7.17;4.30;;;;;;;31.67;30.27;99149.47;5106262;28;40185;-80
2023/10/11 09:35:26;;;;;;;8.77;4.10;;;;;;;31.29;31.56;99141.34;5089005;28;41885;-81
2023/10/11 09:37:55;;;;;;;5.63;4.20;;;;;;;31.06;31.00;99155.56;5089032;28;41588;-81
2023/10/11 09:40:34;;;;;;;6.90;3.60;;;;;;;31.36;30.25;99147.63;5106296;28;41419;-81
2023/10/11 09:43:04;;;;;;;6.30;3.53;;;;;;;31.75;30.22;99154.69;5105747;28;40612;-81
2023/10/11 09:45:41;;;;;;;7.20;3.83;;;;;;;32.00;29.42;99151.06;5089191;28;40854;-84
2023/10/11 09:48:12;;;;;;;6.63;3.37;;;;;;;32.03;29.56;99158.81;5106125;28;42755;-81
2023/10/11 09:50:43;;;;;;;5.93;3.33;;;;;;;32.64;29.29;99158.75;5107148;28;42401;-84
2023/10/11 09:53:12;;;;;;;7.93;3.77;;;;;;;33.00;29.16;99173.50;5105950;28;38945;-81
2023/10/11 09:55:47;;;;;;;5.75;3.75;;;;;;;33.86;28.42;99173.88;5105812;28;42008;-82
2023/10/11 09:58:32;;;;;;;6.97;4.00;;;;;;;35.28;26.72;99179.66;5085310;28;43543;-83
2023/10/11 10:01:10;;;;;;;4.85;3.45;;;;;;;35.98;25.89;99192.97;5075492;28;41718;-82
2023/10/11 10:03:39;;;;;;;4.32;3.15;;;;;;;36.71;25.06;99196.53;5092311;28;39056;-80
2023/10/11 10:06:10;;;;;;;6.13;3.40;;;;;;;38.13;23.81;99205.41;5093608;28;41875;-83
2023/10/11 10:08:38;;;;;;;4.85;3.47;;;;;;;38.49;23.15;99206.44;5091970;28;43171;-82
2023/10/11 10:11:05;;;;;;;5.10;3.33;;;;;;;39.06;23.04;99212.00;5092083;28;41304;-83
2023/10/11 10:14:00;;;;;;;8.00;3.08;;;;;;;39.36;22.58;99212.06;5093151;28;40009;-83
2023/10/11 10:17:00;;;;;;;6.03;3.33;;;;;;;39.12;22.87;99210.91;5075878;28;40893;-85
2023/10/11 10:19:34;;;;;;;5.72;3.38;;;;;;;38.44;23.13;99198.97;5092980;28;43482;-81
2023/10/11 10:22:16;;;;;;;5.63;3.47;;;;;;;37.54;23.64;99188.88;5091908;28;42501;-81
2023/10/11 10:24:45;;;;;;;7.50;3.63;;;;;;;36.67;24.00;99179.63;5124002;27;40157;-84
2023/10/11 10:27:38;;;;;;;6.65;3.47;;;;;;;36.20;24.81;99162.69;5092552;28;43054;-81
2023/10/11 10:30:07;;;;;;;5.70;3.80;;;;;;;36.33;25.25;99161.53;5094112;28;42471;-85
2023/10/11 10:32:35;;;;;;;6.00;3.38;;;;;;;37.09;24.25;99181.78;5075472;28;41107;-80
2023/10/11 10:35:37;;;;;;;6.13;3.55;;;;;;;37.89;23.85;99175.34;5092670;28;39916;-84
2023/10/11 10:38:09;;;;;;;5.43;3.33;;;;;;;38.48;22.85;99177.94;5022311;28;41214;-84
2023/10/11 10:40:37;;;;;;;3.55;3.00;;;;;;;39.02;22.46;99188.72;5075693;28;43434;-83
2023/10/11 10:43:19;;;;;;;4.20;2.95;;;;;;;39.00;22.82;99177.06;5092639;28;41564;-85
2023/10/11 10:45:48;;;;;;;8.50;3.60;;;;;;;39.37;22.29;99158.28;5075927;28;39367;-82
2023/10/11 10:48:18;;;;;;;5.85;3.45;;;;;;;40.74;21.17;99176.72;5090719;28;41845;-82
2023/10/11 10:50:47;;;;;;;5.05;3.13;;;;;;;42.25;19.46;99188.69;5090694;28;41849;-82
2023/10/11 10:53:16;;;;;;;4.90;2.83;;;;;;;43.81;18.89;99183.22;5090846;28;42126;-83
2023/10/11 10:55:44;;;;;;;3.78;2.80;;;;;;;44.25;17.85;99188.31;5074247;28;40411;-83
2023/10/11 10:58:18;;;;;;;4.28;2.78;;;;;;;43.47;18.54;99166.75;5073653;28;41543;-83
2023/10/11 11:00:47;;;;;;;5.05;3.20;;;;;;;44.05;18.46;99172.75;5091449;28;42756;-84
2023/10/11 11:03:21;;;;;;;5.43;2.95;;;;;;;44.99;17.93;99164.69;5074210;28;41466;-85
2023/10/11 11:05:58;;;;;;;5.35;3.15;;;;;;;45.50;17.72;99173.88;5091119;28;40266;-84
2023/10/11 11:08:28;;;;;;;9.68;3.42;;;;;;;46.06;17.00;99160.09;5073874;28;41100;-84
2023/10/11 11:11:14;;;;;;;5.10;3.30;;;;;;;46.22;16.80;99163.31;5089861;28;42577;-83
2023/10/11 11:13:41;;;;;;;5.22;3.08;;;;;;;46.11;16.09;99161.94;5080412;28;41365;-82
2023/10/11 11:16:16;;;;;;;5.47;3.03;;;;;;;45.48;16.50;99154.59;5094065;28;40088;-84
2023/10/11 11:18:43;;;;;;;4.85;3.55;;;;;;;44.38;17.61;99134.44;5091816;28;40465;-85
2023/10/11 11:21:20;;;;;;;7.30;3.30;;;;;;;43.34;18.08;99143.25;5091899;28;41867;-82
2023/10/11 11:23:49;;;;;;;4.57;2.97;;;;;;;42.60;18.90;99134.53;5074396;28;41096;-83
2023/10/11 11:26:17;;;;;;;4.13;3.17;;;;;;;42.97;18.58;99132.94;5092786;28;40196;-81
2023/10/11 11:28:45;;;;;;;5.28;2.85;;;;;;;43.91;17.64;99128.03;5074818;28;41837;-82
2023/10/11 11:31:15;;;;;;;6.25;2.70;;;;;;;44.91;17.41;99123.50;5091695;28;41756;-82
2023/10/11 11:34:06;;;;;;;5.10;2.67;;;;;;;45.41;16.49;99115.84;5092838;28;42272;-84
2023/10/11 11:36:34;;;;;;;6.05;2.70;;;;;;;46.14;16.00;99122.06;5088956;28;40845;-82
2023/10/11 11:39:25;;;;;;;8.05;3.10;;;;;;;46.77;15.72;99126.41;5091549;28;42009;-85
2023/10/11 11:41:54;;;;;;;5.38;3.53;;;;;;;47.55;15.81;99118.84;5089182;28;43518;-81
2023/10/11 11:44:21;;;;;;;3.35;2.75;;;;;;;48.31;14.67;99099.28;5089761;28;42248;-85
2023/10/11 11:46:49;;;;;;;3.20;2.42;;;;;;;49.06;14.43;99113.53;5091216;28;40694;-85
2023/10/11 11:49:21;;;;;;;5.72;2.97;;;;;;;49.53;13.99;99098.06;5090111;28;41999;-83
2023/10/11 11:51:51;;;;;;;4.35;3.60;;;;;;;49.62;13.88;99109.22;5087850;28;42648;-82
2023/10/11 11:54:28;;;;;;;4.03;3.00;;;;;;;49.20;14.05;99102.84;5072920;28;41145;-83
2023/10/11 11:56:55;;;;;;;4.15;2.63;;;;;;;48.47;14.37;99097.56;5073327;28;40798;-83
2023/10/11 11:59:24;;;;;;;7.07;2.78;;;;;;;48.00;14.64;99081.88;5091444;28;42165;-82
2023/10/11 12:01:52;;;;;;;5.10;3.00;;;;;;;48.08;14.74;99089.47;5089755;28;43939;-83
2023/10/11 12:04:23;;;;;;;6.82;3.25;;;;;;;48.37;14.07;99086.69;5090193;28;41049;-83
2023/10/11 12:06:50;;;;;;;6.68;3.33;;;;;;;48.65;13.83;99089.00;5087768;28;40550;-84
2023/10/11 12:09:22;;;;;;;4.50;2.72;;;;;;;48.66;14.09;99082.22;5090031;28;42109;-82
2023/10/11 12:11:53;;;;;;;4.80;3.28;;;;;;;48.80;14.01;99074.34;5088858;28;43048;-82
2023/10/11 12:14:23;;;;;;;5.32;3.08;;;;;;;48.92;13.92;99057.56;5089244;28;42081;-83
2023/10/11 12:16:50;;;;;;;7.43;3.75;;;;;;;49.28;13.80;99070.97;5090597;28;40249;-85
2023/10/11 12:19:18;;;;;;;6.43;3.38;;;;;;;49.48;13.78;99074.88;5090942;28;41067;-83
2023/10/11 12:21:45;;;;;;;4.47;3.05;;;;;;;49.56;13.52;99068.41;5073150;28;42547;-85
2023/10/11 12:24:13;;;;;;;6.43;3.40;;;;;;;49.53;13.02;99072.72;5091753;28;42099;-85
2023/10/11 12:26:41;;;;;;;6.75;3.35;;;;;;;49.31;13.38;99063.84;5090276;28;39937;-83
2023/10/11 12:29:12;;;;;;;9.77;3.05;;;;;;;48.96;13.42;99069.78;5091859;28;41564;-84
2023/10/11 12:31:40;;;;;;;5.05;2.97;;;;;;;48.57;14.16;99065.44;5089302;28;42724;-81
2023/10/11 12:34:09;;;;;;;8.55;3.30;;;;;;;48.34;14.02;99052.84;5089294;28;42229;-83
2023/10/11 12:36:39;;;;;;;6.72;2.95;;;;;;;48.28;14.50;99048.56;5072178;28;38649;-85
2023/10/11 12:39:08;;;;;;;5.70;2.90;;;;;;;47.58;13.91;99058.41;5089492;28;42151;-82
2023/10/11 12:41:36;;;;;;;5.50;3.28;;;;;;;45.71;15.44;99029.47;5072684;28;42625;-82
2023/10/11 12:44:07;;;;;;;7.13;3.20;;;;;;;45.47;15.57;99029.84;5072671;28;40829;-81
2023/10/11 12:46:37;;;;;;;8.32;2.50;;;;;;;45.63;15.63;99036.66;5072386;28;39261;-82
2023/10/11 12:49:12;;;;;;;5.85;3.00;;;;;;;45.61;15.62;99030.59;5086612;28;42715;-82
2023/10/11 12:51:41;;;;;;;5.60;2.63;;;;;;;45.57;15.84;99040.78;5086501;28;45312;-82
2023/10/11 12:54:10;;;;;;;4.65;2.95;;;;;;;45.26;16.41;99020.31;5072281;28;41060;-82
2023/10/11 12:56:39;;;;;;;6.00;2.88;;;;;;;45.49;16.24;99024.75;5072334;28;39286;-83
2023/10/11 12:59:12;;;;;;;5.53;3.00;;;;;;;45.56;15.66;99025.13;5090768;28;41813;-82
2023/10/11 13:01:50;;;;;;;6.05;2.92;;;;;;;45.20;15.93;99030.00;5071993;28;41811;-82
2023/10/11 13:04:23;;;;;;;4.80;2.85;;;;;;;44.74;16.12;99017.13;5072463;28;42388;-84
2023/10/11 13:06:51;;;;;;;5.18;3.13;;;;;;;44.58;16.69;99029.78;5072029;28;39066;-81
2023/10/11 13:09:27;;;;;;;6.35;3.33;;;;;;;44.29;16.62;99018.94;5088863;28;40738;-83
2023/10/11 13:11:56;;;;;;;4.22;2.65;;;;;;;43.91;16.57;99004.38;5088557;28;43968;-83
2023/10/11 13:14:24;;;;;;;6.82;2.78;;;;;;;43.72;16.82;99014.84;5073453;28;41098;-82
2023/10/11 13:16:55;;;;;;;5.90;2.92;;;;;;;43.18;17.26;98980.13;5091626;28;40357;-84
2023/10/11 13:19:24;;;;;;;5.45;2.83;;;;;;;43.00;17.89;98990.19;5088409;28;41634;-85
2023/10/11 13:21:54;;;;;;;6.60;3.08;;;;;;;42.99;17.66;98992.13;5073222;28;42054;-83
2023/10/11 13:24:23;;;;;;;6.03;3.20;;;;;;;42.93;17.99;98996.13;5073146;28;41041;-82
2023/10/11 13:26:51;;;;;;;5.15;3.53;;;;;;;42.71;18.07;98976.41;5091269;28;40065;-84
2023/10/11 13:29:20;;;;;;;6.40;3.22;;;;;;;42.78;17.98;98987.22;5089857;28;41559;-83
2023/10/11 13:31:49;;;;;;;5.03;2.80;;;;;;;42.73;18.31;98976.94;5089761;28;44225;-81
2023/10/11 13:34:18;;;;;;;8.23;3.05;;;;;;;42.83;18.15;98992.69;5091270;28;42199;-83
2023/10/11 13:36:46;;;;;;;5.05;2.97;;;;;;;42.90;18.32;98985.63;5092862;28;38964;-82
2023/10/11 13:39:26;;;;;;;4.25;2.75;;;;;;;42.65;18.57;98972.06;5093037;28;40968;-82
2023/10/11 13:41:54;;;;;;;4.63;3.13;;;;;;;41.98;18.44;98974.13;5090787;28;43216;-82
2023/10/11 13:44:22;;;;;;;5.80;3.45;;;;;;;41.26;19.03;98973.25;5075217;28;42213;-82
2023/10/11 13:46:52;;;;;;;5.93;2.90;;;;;;;41.02;19.42;98961.22;5091600;28;39439;-81
2023/10/11 13:49:26;;;;;;;5.07;3.33;;;;;;;40.96;19.61;98956.81;5093446;28;42426;-82
2023/10/11 13:51:54;;;;;;;5.25;3.10;;;;;;;40.99;19.63;98967.34;5074814;28;43163;-81
2023/10/11 13:54:35;;;;;;;6.28;3.40;;;;;;;40.61;19.74;98927.38;5091984;28;41177;-83
2023/10/11 13:57:10;;;;;;;6.85;3.47;;;;;;;40.61;20.11;98939.31;5091761;28;40424;-82
2023/10/11 13:59:44;;;;;;;4.72;3.33;;;;;;;40.59;20.44;98940.72;5075326;28;40873;-83
2023/10/11 14:02:33;;;;;;;6.32;3.50;;;;;;;40.53;20.28;98926.06;5074765;28;41679;-82
2023/10/11 14:05:20;;;;;;;9.10;3.30;;;;;;;40.30;20.05;98944.28;5090191;28;43206;-82
2023/10/11 14:07:54;;;;;;;6.80;3.25;;;;;;;39.86;20.01;98949.75;5090949;28;40133;-84
2023/10/11 14:10:26;;;;;;;4.80;3.05;;;;;;;39.45;20.47;98938.78;5074964;28;42515;-82
2023/10/11 14:12:56;;;;;;;4.70;3.45;;;;;;;39.24;20.69;98944.63;5091489;28;43574;-84
2023/10/11 14:15:24;;;;;;;6.82;3.13;;;;;;;39.18;20.67;98938.28;5092814;28;41356;-84
2023/10/11 14:17:53;;;;;;;7.03;3.42;;;;;;;38.89;20.55;98901.19;5075945;28;38763;-84
2023/10/11 14:20:24;;;;;;;4.03;2.88;;;;;;;38.84;20.83;98932.47;5076146;28;40968;-82
2023/10/11 14:22:51;;;;;;;8.13;3.10;;;;;;;38.56;21.31;98920.03;5093000;28;42777;-82
2023/10/11 14:25:19;;;;;;;6.00;3.10;;;;;;;37.92;21.80;98909.34;5092440;28;43420;-81
2023/10/11 14:27:47;;;;;;;7.05;3.08;;;;;;;37.11;22.82;98903.38;5093798;28;40910;-82
2023/10/11 14:30:15;;;;;;;5.03;3.63;;;;;;;36.50;23.32;98913.13;5092502;28;42543;-80
2023/10/11 14:32:44;;;;;;;8.77;3.80;;;;;;;35.85;23.97;98895.66;5076643;28;43540;-81
2023/10/11 14:35:12;;;;;;;6.72;3.88;;;;;;;35.21;24.47;98895.31;5098624;28;42648;-82
2023/10/11 14:37:42;;;;;;;4.60;3.17;;;;;;;34.51;24.76;98882.09;5096424;28;40696;-81
2023/10/11 14:40:14;;;;;;;4.80;3.17;;;;;;;34.21;25.37;98895.31;5094004;28;41814;-82
2023/10/11 14:42:42;;;;;;;5.93;3.10;;;;;;;33.83;25.35;98895.97;5091311;28;42486;-81
2023/10/11 14:45:14;;;;;;;6.03;3.07;;;;;;;33.33;25.70;98882.00;5093021;28;43288;-80
2023/10/11 14:47:45;;;;;;;8.10;2.97;;;;;;;32.86;26.18;98876.56;5090661;28;40346;-84
2023/10/11 14:50:12;;;;;;;5.37;2.97;;;;;;;32.55;26.68;98879.59;5091408;28;41814;-82
2023/10/11 14:52:42;;;;;;;5.43;3.20;;;;;;;32.24;26.87;98881.59;5091070;28;43778;-80
2023/10/11 14:55:16;;;;;;;5.33;2.40;;;;;;;31.95;27.45;98868.72;5091103;28;42573;-83
2023/10/11 14:57:43;;;;;;;5.10;3.03;;;;;;;31.65;27.76;98864.06;5091295;28;40054;-82
2023/10/11 15:00:15;;;;;;;6.90;3.00;;;;;;;31.43;28.34;98860.09;5074144;28;40859;-83
2023/10/11 15:02:44;;;;;;;4.13;2.73;;;;;;;31.21;28.74;98856.19;5074361;28;42572;-81
2023/10/11 15:05:15;;;;;;;5.53;2.60;;;;;;;30.97;29.10;98852.44;5091982;28;42497;-82
2023/10/11 15:07:45;;;;;;;5.97;3.50;;;;;;;30.72;29.98;98849.75;5090595;28;39274;-84
2023/10/11 15:10:13;;;;;;;5.07;2.70;;;;;;;30.47;30.58;98841.53;5073847;28;40907;-82
2023/10/11 15:12:42;;;;;;;5.13;2.57;;;;;;;30.20;30.98;98827.25;5092442;28;42945;-82
2023/10/11 15:15:11;;;;;;;5.50;2.73;;;;;;;30.13;31.39;98834.69;5091850;28;42333;-82
2023/10/11 15:17:39;;;;;;;6.37;2.90;;;;;;;30.01;31.54;98831.00;5091715;28;41619;-80
2023/10/11 15:20:08;;;;;;;5.97;3.33;;;;;;;29.82;31.99;98826.44;5091820;28;42001;-82
2023/10/11 15:22:36;;;;;;;6.47;3.00;;;;;;;29.50;32.89;98810.06;5091923;28;42953;-82
2023/10/11 15:25:08;;;;;;;9.43;3.30;;;;;;;29.40;32.73;98826.06;5092862;28;42494;-83
2023/10/11 15:27:36;;;;;;;6.17;3.40;;;;;;;29.22;33.13;98820.44;5088549;28;40854;-79
2023/10/11 15:30:06;;;;;;;6.60;2.90;;;;;;;29.00;33.31;98814.44;5090856;28;41288;-80
2023/10/11 15:32:34;;;;;;;9.90;3.43;;;;;;;28.87;33.72;98826.25;5090795;28;43693;-81
2023/10/11 15:35:04;;;;;;;6.03;3.30;;;;;;;28.71;34.00;98821.19;5073800;28;42509;-83
2023/10/11 15:37:32;;;;;;;5.63;3.53;;;;;;;28.55;34.45;98816.22;5089352;28;40000;-83
2023/10/11 15:40:00;;;;;;;7.30;3.40;;;;;;;28.29;34.33;98802.63;5091764;28;42477;-81
2023/10/11 15:42:29;;;;;;;4.70;2.80;;;;;;;28.29;34.76;98827.97;5090381;28;42797;-82
2023/10/11 15:44:58;;;;;;;8.97;3.60;;;;;;;28.01;35.06;98806.34;5091734;28;42319;-81
2023/10/11 15:47:25;;;;;;;7.10;3.20;;;;;;;28.00;35.13;98834.63;5091401;28;40225;-83
2023/10/11 15:49:58;;;;;;;7.20;2.90;;;;;;;27.86;35.25;98825.59;5073633;28;40819;-83
2023/10/11 15:52:26;;;;;;;4.47;2.43;;;;;;;27.75;35.50;98819.94;5073179;28;43083;-83
2023/10/11 15:54:53;;;;;;;5.10;2.83;;;;;;;27.61;36.12;98823.66;5091399;28;42429;-81
2023/10/11 15:57:22;;;;;;;12.93;3.63;;;;;;;27.43;36.39;98816.06;5089741;28;39798;-81
2023/10/11 15:59:51;;;;;;;7.60;3.13;;;;;;;27.33;36.66;98810.16;5090087;28;42276;-83
2023/10/11 16:02:18;;;;;;;4.73;3.20;;;;;;;27.23;36.37;98818.69;5090203;28;43652;-83
2023/10/11 16:04:46;;;;;;;6.83;2.90;;;;;;;26.95;36.82;98786.19;5073487;28;41261;-82
2023/10/11 16:07:13;;;;;;;4.83;2.57;;;;;;;26.99;37.07;98819.22;5091708;28;40635;-82
2023/10/11 16:09:41;;;;;;;5.33;3.07;;;;;;;26.84;37.60;98805.72;5073164;28;41181;-83
2023/10/11 16:12:12;;;;;;;7.43;3.70;;;;;;;26.70;37.74;98799.41;5073196;28;41908;-82
2023/10/11 16:14:41;;;;;;;7.17;3.50;;;;;;;26.45;38.34;98779.19;5074111;28;40984;-82
2023/10/11 16:17:11;;;;;;;6.57;3.07;;;;;;;26.42;38.53;98796.72;5092374;28;40839;-83
2023/10/11 16:19:39;;;;;;;8.50;3.50;;;;;;;26.28;38.31;98794.94;5088100;28;42397;-80
2023/10/11 16:22:08;;;;;;;5.33;3.03;;;;;;;26.19;38.93;98806.13;5073983;28;43275;-82